Buoy 51819

sailwx.info

Track history (hours):
 
Tides and Currents Weather Stations Pressure Air Temp Water Temp Dewpoint Dewpoint Depression Visibility Wind Speed Wind Dir Waves Ship Positions

Min Pu Yu 51819

Last reported at 2018-Jun-21 17:00 UTC. Time now 2018-Jun-21 18:03 UTC.
Position N 11°31' W 135°53'.

Length 26 m.

Type: Fishing. MMSI: 412448202.

Air temperature -0.0 ° C
Water temperature 27.6 ° C

Date/timePositionNaut miles runAvg speedWind from/ knotsBaromVisibWave heightAir tempDewpointWater temp
2018-Jun-21 17:00N 11°31' W 135°53'1 0.8 -0.0 27.6
2018-Jun-21 16:00N 11°31' W 135°52'0 0.0 -0.0 27.6
2018-Jun-21 15:30N 11°31' W 135°52'1 1.2 -0.0 27.5
2018-Jun-21 15:00N 11°31' W 135°52'1 1.2 -0.0 27.6
2018-Jun-21 14:30N 11°31' W 135°52'0 0.0 -0.0 27.6
2018-Jun-21 14:00N 11°31' W 135°52'1 1.2 -0.0 27.6
2018-Jun-21 13:30N 11°31' W 135°51'0 0.0 -0.0 27.6
2018-Jun-21 13:00N 11°31' W 135°51'0 0.0 -0.0 27.6
2018-Jun-21 12:30N 11°31' W 135°51'1 1.2 -0.0 27.5
2018-Jun-21 12:00N 11°31' W 135°50'0 0.0 -0.0 27.6
2018-Jun-21 11:30N 11°31' W 135°50'2 0.5 -0.0 27.6
2018-Jun-21 07:30N 11°30' W 135°49'1 0.8 -0.0 27.6
2018-Jun-21 06:30N 11°29' W 135°48'1 1.2 -0.0 27.6
2018-Jun-21 06:00N 11°29' W 135°47'1 1.2 -0.0 27.5
2018-Jun-21 05:00N 11°29' W 135°46'1 1.2 -0.0 27.6
2018-Jun-21 04:30N 11°29' W 135°46'0 0.0 -0.0 27.6
2018-Jun-21 04:00N 11°29' W 135°46'1 1.2 -0.0 27.6
2018-Jun-21 03:30N 11°29' W 135°45'1 1.2 -0.0 27.6
2018-Jun-21 03:00N 11°29' W 135°44'1 1.2 -0.0 27.6
2018-Jun-21 02:30N 11°29' W 135°44'1 1.2 -0.0 27.6
2018-Jun-21 02:00N 11°29' W 135°43'1 1.2 -0.0 27.6
2018-Jun-21 01:30N 11°29' W 135°43'0 0.0 -0.0 27.6
2018-Jun-21 01:00N 11°29' W 135°43'1 1.2 -0.0 27.6
2018-Jun-21 00:30N 11°29' W 135°42'1 0.8 -0.0 27.6
2018-Jun-20 23:00N 11°29' W 135°41'1 1.2 -0.0 27.6
2018-Jun-20 22:00N 11°29' W 135°40'4 1.2 -0.0 27.6
2018-Jun-20 19:00N 11°31' W 135°36'0 0.0 -0.0 27.6
2018-Jun-20 18:30N 11°31' W 135°36'1 1.2 -0.0 27.6
2018-Jun-20 18:00N 11°31' W 135°35'1 0.8 -0.0 27.6
2018-Jun-20 17:00N 11°31' W 135°35'1 1.3 -0.0 27.6
2018-Jun-20 16:00N 11°32' W 135°34'0 0.0 -0.0 27.6
2018-Jun-20 15:30N 11°32' W 135°34'1 1.2 -0.0 27.6
2018-Jun-20 15:00N 11°32' W 135°33'1 1.7 -0.0 27.6
2018-Jun-20 14:30N 11°32' W 135°32'1 0.6 -0.0 27.6
2018-Jun-20 13:30N 11°32' W 135°32'1 0.9 -0.0 27.7
2018-Jun-20 12:00N 11°33' W 135°31'1 1.3 -0.0 27.7
2018-Jun-20 11:00N 11°34' W 135°29'3 0.7 -0.0 27.7
2018-Jun-20 07:00N 11°35' W 135°27'0 0.0 -0.0 27.8
2018-Jun-20 06:30N 11°35' W 135°27'1 1.7 -0.0 27.9
2018-Jun-20 06:00N 11°35' W 135°26'0 0.0 -0.0 27.9
2018-Jun-20 05:30N 11°35' W 135°26'1 1.2 -0.0 27.9
2018-Jun-20 05:00N 11°35' W 135°26'1 1.2 -0.0 27.9
2018-Jun-20 04:30N 11°36' W 135°26'0 0.0 -0.0 27.9
2018-Jun-20 04:00N 11°36' W 135°26'1 1.2 -0.0 27.9
2018-Jun-20 03:30N 11°36' W 135°25'1 0.6 -0.0 27.9
2018-Jun-20 02:30N 11°36' W 135°25'1 0.8 -0.0 28.0
2018-Jun-20 01:30N 11°37' W 135°24'0 0.0 -0.0 28.0
2018-Jun-20 01:00N 11°37' W 135°24'1 0.6 -0.0 28.0
2018-Jun-20 00:00N 11°37' W 135°23'2 0.4 -0.0 28.0
2018-Jun-19 19:00N 11°37' W 135°22'1 0.6 -0.0 27.9
2018-Jun-19 18:00N 11°37' W 135°21'1 1.2 -0.0 27.8
2018-Jun-19 17:30N 11°37' W 135°21'0 0.0 -0.0 27.7
2018-Jun-19 17:00N 11°37' W 135°21'1 0.8 -0.0 27.6
2018-Jun-19 16:00N 11°38' W 135°20'0 0.0 -0.0 27.6
2018-Jun-19 15:30N 11°38' W 135°20'0 0.0 -0.0 27.7
2018-Jun-19 15:00N 11°38' W 135°20'1 0.8 -0.0 27.6
2018-Jun-19 14:00N 11°38' W 135°20'0 0.0 -0.0 27.7
2018-Jun-19 13:30N 11°38' W 135°20'1 0.6 -0.0 27.7
2018-Jun-19 12:30N 11°39' W 135°20'0 0.0 -0.0 27.7
2018-Jun-19 11:00N 11°39' W 135°20'2 0.5 -0.0 27.7
2018-Jun-19 07:30N 11°38' W 135°19'1 0.6 -0.0 27.8
2018-Jun-19 06:30N 11°38' W 135°18'0 0.0 -0.0 27.8
2018-Jun-19 06:00N 11°38' W 135°18'1 1.2 -0.0 27.8
2018-Jun-19 05:30N 11°38' W 135°17'1 1.2 -0.0 27.8
2018-Jun-19 05:00N 11°38' W 135°17'0 0.0 -0.0 27.8
2018-Jun-19 04:30N 11°38' W 135°17'1 1.2 -0.0 27.9
2018-Jun-19 04:00N 11°38' W 135°16'0 0.0 -0.0 27.9
2018-Jun-19 03:30N 11°38' W 135°16'1 1.2 -0.0 27.9
2018-Jun-19 03:00N 11°38' W 135°16'0 0.0 -0.0 27.9
2018-Jun-19 02:30N 11°38' W 135°16'1 1.2 -0.0 27.9
2018-Jun-19 02:00N 11°38' W 135°15'1 0.6 -0.0 27.9
2018-Jun-19 01:00N 11°38' W 135°14'1 0.8 -0.0 28.0
2018-Jun-19 00:00N 11°37' W 135°14'1 1.2 -0.0 28.0
2018-Jun-18 23:30N 11°37' W 135°13'4 0.9 -0.0 28.0
2018-Jun-18 19:30N 11°35' W 135°10'1 1.2 -0.0 27.8
2018-Jun-18 19:00N 11°35' W 135°10'0 0.0 -0.0 27.7
2018-Jun-18 18:30N 11°35' W 135°10'1 1.7 -0.0 27.7
2018-Jun-18 18:00N 11°34' W 135°09'1 0.6 -0.0 27.7
2018-Jun-18 17:00N 11°34' W 135°08'0 0.0 -0.0 27.7
2018-Jun-18 16:30N 11°34' W 135°08'1 1.2 -0.0 27.7
2018-Jun-18 16:00N 11°34' W 135°08'0 0.0 -0.0 27.7
2018-Jun-18 15:30N 11°34' W 135°08'1 1.2 -0.0 27.6
2018-Jun-18 15:00N 11°34' W 135°07'1 0.8 -0.0 27.7
2018-Jun-18 14:00N 11°34' W 135°07'1 1.2 -0.0 27.7
2018-Jun-18 13:30N 11°34' W 135°06'1 1.2 -0.0 27.7
2018-Jun-18 13:00N 11°34' W 135°05'4 0.7 -0.0 27.7
2018-Jun-18 07:00N 11°32' W 135°01'1 1.2 -0.0 27.7
2018-Jun-18 06:30N 11°32' W 135°01'1 1.2 -0.0 27.7
2018-Jun-18 06:00N 11°32' W 135°00'0 0.0 -0.0 27.8
2018-Jun-18 05:30N 11°32' W 135°00'1 1.2 -0.0 27.8
2018-Jun-18 05:00N 11°32' W 134°59'1 1.2 -0.0 27.8
2018-Jun-18 04:30N 11°33' W 134°59'1 1.2 -0.0 27.8
2018-Jun-18 04:00N 11°33' W 134°59'1 1.2 -0.0 27.8
2018-Jun-18 03:30N 11°33' W 134°58'1 1.2 -0.0 27.8
2018-Jun-18 03:00N 11°34' W 134°58'1 1.2 -0.0 27.9
2018-Jun-18 02:30N 11°34' W 134°58'1 1.7 -0.0 27.9
2018-Jun-18 02:00N 11°34' W 134°57'0 0.0 -0.0 28.0
2018-Jun-18 01:30N 11°34' W 134°57'1 1.2 -0.0 28.0
2018-Jun-18 01:00N 11°34' W 134°56'1 0.6 -0.0 28.1
2018-Jun-18 00:00N 11°34' W 134°56'1 1.2 -0.0 28.1
2018-Jun-17 23:30N 11°35' W 134°56'2 0.5 -0.0 28.1
2018-Jun-17 19:00N 11°34' W 134°53'1 0.6 -0.0 27.8
2018-Jun-17 18:00N 11°34' W 134°53'1 0.6 -0.0 27.7
2018-Jun-17 17:00N 11°34' W 134°52'0 0.0 -0.0 27.6
2018-Jun-17 16:30N 11°34' W 134°52'0 0.0 -0.0 27.6
2018-Jun-17 16:00N 11°34' W 134°52'1 0.8 -0.0 27.6
2018-Jun-17 15:00N 11°35' W 134°52'0 0.0 -0.0 27.6
2018-Jun-17 14:30N 11°35' W 134°52'1 1.2 -0.0 27.6
2018-Jun-17 14:00N 11°35' W 134°51'0 0.0 -0.0 27.6
2018-Jun-17 13:30N 11°35' W 134°51'1 1.2 -0.0 27.6
2018-Jun-17 13:00N 11°35' W 134°51'1 1.2 -0.0 27.6
2018-Jun-17 12:30N 11°35' W 134°50'1 0.6 -0.0 27.6
2018-Jun-17 11:30N 11°36' W 134°50'2 0.5 -0.0 27.6
2018-Jun-17 07:00N 11°35' W 134°48'0 0.0 -0.0 27.7
2018-Jun-17 06:30N 11°35' W 134°48'1 0.8 -0.0 27.7
2018-Jun-17 05:30N 11°36' W 134°47'0 0.0 -0.0 27.7
2018-Jun-17 05:00N 11°36' W 134°47'1 1.2 -0.0 27.7
2018-Jun-17 04:30N 11°36' W 134°47'0 0.0 -0.0 27.7
2018-Jun-17 03:30N 11°36' W 134°47'0 0.0 -0.0 27.8
2018-Jun-17 03:00N 11°36' W 134°47'1 0.6 -0.0 27.8
2018-Jun-17 01:30N 11°35' W 134°46'1 0.6 -0.0 27.9
2018-Jun-17 00:30N 11°35' W 134°46'0 0.0 -0.0 28.0
2018-Jun-17 00:00N 11°35' W 134°46'1 0.6 -0.0 28.0
2018-Jun-16 23:00N 11°35' W 134°45'1 0.4 -0.0 28.0
2018-Jun-16 19:30N 11°35' W 134°44'1 0.8 -0.0 27.7
2018-Jun-16 18:30N 11°34' W 134°43'0 0.0 -0.0 27.6
2018-Jun-16 18:00N 11°34' W 134°43'1 1.2 -0.0 27.6
2018-Jun-16 17:30N 11°34' W 134°43'0 0.0 -0.0 27.6
2018-Jun-16 17:00N 11°34' W 134°43'1 0.8 -0.0 27.6
2018-Jun-16 16:00N 11°34' W 134°42'1 0.6 -0.0 27.6
2018-Jun-16 15:00N 11°34' W 134°41'0 0.0 -0.0 27.6
2018-Jun-16 14:30N 11°34' W 134°41'1 1.2 -0.0 27.6
2018-Jun-16 14:00N 11°34' W 134°41'1 0.8 -0.0 27.6
2018-Jun-16 13:00N 11°34' W 134°40'0 0.0 -0.0 27.6
2018-Jun-16 12:30N 11°34' W 134°40'3 0.5 -0.0 27.6
2018-Jun-16 07:30N 11°33' W 134°38'1 1.2 -0.0 27.6
2018-Jun-16 07:00N 11°33' W 134°37'1 1.3 -0.0 27.7
2018-Jun-16 06:00N 11°32' W 134°36'0 0.0 -0.0 27.7
2018-Jun-16 05:30N 11°32' W 134°36'1 1.2 -0.0 27.7
2018-Jun-16 05:00N 11°32' W 134°35'1 1.2 -0.0 27.7
2018-Jun-16 04:30N 11°32' W 134°35'0 0.0 -0.0 27.7
2018-Jun-16 04:00N 11°32' W 134°35'1 1.3 -0.0 27.7
2018-Jun-16 03:00N 11°33' W 134°34'1 0.6 -0.0 27.7
2018-Jun-16 02:00N 11°33' W 134°33'1 1.2 -0.0 27.8
2018-Jun-16 01:30N 11°33' W 134°32'0 0.0 -0.0 27.8
2018-Jun-16 01:00N 11°33' W 134°32'1 0.8 -0.0 27.8
2018-Jun-16 00:00N 11°34' W 134°32'1 0.6 -0.0 27.8
2018-Jun-15 23:00N 11°34' W 134°31'2 0.7 -0.0 27.8
2018-Jun-15 19:30N 11°34' W 134°29'1 1.2 -0.0 27.6
2018-Jun-15 19:00N 11°34' W 134°28'1 1.3 -0.0 27.6
2018-Jun-15 18:00N 11°33' W 134°27'1 0.6 -0.0 27.6
2018-Jun-15 17:00N 11°33' W 134°26'1 0.8 -0.0 27.6
2018-Jun-15 16:00N 11°34' W 134°26'1 1.2 -0.0 27.6
2018-Jun-15 15:30N 11°34' W 134°25'1 0.8 -0.0 27.6
2018-Jun-15 14:30N 11°34' W 134°25'0 0.0 -0.0 27.6
2018-Jun-15 14:00N 11°34' W 134°25'1 1.2 -0.0 27.6
2018-Jun-15 13:30N 11°34' W 134°24'0 0.0 -0.0 27.6
2018-Jun-15 13:00N 11°34' W 134°24'1 0.8 -0.0 27.6
2018-Jun-15 12:00N 11°35' W 134°23'3 0.5 -0.0 27.6
2018-Jun-15 06:30N 11°35' W 134°20'0 0.0 -0.0 27.6
2018-Jun-15 06:00N 11°35' W 134°20'1 1.2 -0.0 27.6
2018-Jun-15 05:30N 11°35' W 134°20'1 1.7 -0.0 27.7
2018-Jun-15 05:00N 11°36' W 134°19'0 0.0 -0.0 27.7
2018-Jun-15 04:30N 11°36' W 134°19'1 1.2 -0.0 27.7
2018-Jun-15 04:00N 11°36' W 134°19'0 0.0 -0.0 27.7
2018-Jun-15 03:30N 11°36' W 134°19'1 0.6 -0.0 27.7
2018-Jun-15 02:30N 11°36' W 134°18'1 1.2 -0.0 27.7
2018-Jun-15 02:00N 11°37' W 134°18'1 0.6 -0.0 27.7
2018-Jun-15 01:00N 11°37' W 134°17'4 0.7 -0.0 27.7
2018-Jun-14 19:00N 11°37' W 134°13'1 0.4 -0.0 27.6
2018-Jun-14 17:30N 11°37' W 134°13'0 0.0 -0.0 27.6
2018-Jun-14 16:30N 11°37' W 134°13'1 1.7 -0.0 27.6
2018-Jun-14 16:00N 11°37' W 134°12'1 1.2 -0.0 27.6
2018-Jun-14 15:30N 11°37' W 134°12'1 1.2 -0.0 27.6
2018-Jun-14 15:00N 11°37' W 134°12'1 1.7 -0.0 27.6
2018-Jun-14 14:30N 11°37' W 134°11'0 0.0 -0.0 27.6
2018-Jun-14 14:00N 11°37' W 134°11'0 0.0 -0.0 27.6
2018-Jun-14 13:30N 11°37' W 134°11'0 0.0 -0.0 27.6
2018-Jun-14 13:00N 11°37' W 134°11'1 0.6 -0.0 27.6
2018-Jun-14 12:00N 11°37' W 134°11'1 1.2 -0.0 27.6
2018-Jun-14 11:30N 11°37' W 134°10'3 0.5 -0.0 27.6
2018-Jun-14 06:30N 11°36' W 134°08'1 1.2 -0.0 27.6
2018-Jun-14 06:00N 11°36' W 134°07'1 0.8 -0.0 27.6
2018-Jun-14 05:00N 11°35' W 134°07'0 0.0 -0.0 27.6
2018-Jun-14 04:30N 11°35' W 134°07'1 1.2 -0.0 27.6
2018-Jun-14 04:00N 11°35' W 134°06'1 0.8 -0.0 27.7
2018-Jun-14 03:00N 11°35' W 134°05'1 0.8 -0.0 27.7
2018-Jun-14 02:00N 11°34' W 134°05'1 1.2 -0.0 27.7
2018-Jun-14 01:30N 11°34' W 134°04'1 1.2 -0.0 27.7
2018-Jun-14 01:00N 11°34' W 134°04'0 0.0 -0.0 27.8
2018-Jun-14 00:30N 11°34' W 134°04'2 1.2 -0.0 27.8
2018-Jun-13 23:00N 11°34' W 134°02'3 0.8 -0.0 27.8
2018-Jun-13 19:30N 11°34' W 133°59'1 0.4 -0.0 27.7
2018-Jun-13 18:00N 11°34' W 133°58'1 0.6 -0.0 27.7
2018-Jun-13 17:00N 11°34' W 133°58'1 1.2 -0.0 27.7
2018-Jun-13 16:30N 11°34' W 133°57'0 0.0 -0.0 27.7
2018-Jun-13 16:00N 11°34' W 133°57'1 0.6 -0.0 27.7
2018-Jun-13 15:00N 11°34' W 133°56'1 1.2 -0.0 27.7
2018-Jun-13 14:30N 11°34' W 133°56'1 0.6 -0.0 27.8
2018-Jun-13 13:30N 11°34' W 133°55'1 1.2 -0.0 27.8
2018-Jun-13 13:00N 11°34' W 133°55'1 1.2 -0.0 27.8
2018-Jun-13 12:00N 11°34' W 133°53'0 0.0 -0.0 27.8
2018-Jun-13 11:30N 11°34' W 133°53'1 1.3 -0.0 27.8
2018-Jun-13 10:30N 11°35' W 133°52'4 1.0 -0.0 27.8
2018-Jun-13 07:00N 11°35' W 133°49'1 1.2 -0.0 27.8
2018-Jun-13 06:30N 11°35' W 133°48'0 0.0 -0.0 27.8
2018-Jun-13 06:00N 11°35' W 133°48'1 1.2 -0.0 27.8
2018-Jun-13 05:30N 11°35' W 133°47'0 0.0 -0.0 27.8
2018-Jun-13 05:00N 11°35' W 133°47'1 1.2 -0.0 27.8
2018-Jun-13 04:30N 11°35' W 133°47'1 0.6 -0.0 27.8
2018-Jun-13 03:30N 11°35' W 133°46'1 1.2 -0.0 27.8
2018-Jun-13 03:00N 11°35' W 133°46'1 1.2 -0.0 27.9
2018-Jun-13 02:30N 11°35' W 133°45'1 1.2 -0.0 27.9
2018-Jun-13 02:00N 11°34' W 133°45'1 1.2 -0.0 27.9
2018-Jun-13 01:00N 11°34' W 133°44'1 1.2 -0.0 28.0
2018-Jun-13 00:30N 11°34' W 133°43'2 0.7 -0.0 28.1
2018-Jun-12 22:00N 11°35' W 133°41'1 0.7 -0.0 28.0
2018-Jun-12 20:00N 11°35' W 133°40'1 0.6 -0.0 27.8
2018-Jun-12 19:00N 11°35' W 133°40'0 0.0 -0.0 27.7
2018-Jun-12 18:00N 11°35' W 133°40'1 1.2 -0.0 27.7
2018-Jun-12 17:30N 11°35' W 133°39'0 0.0 -0.0 27.7
2018-Jun-12 17:00N 11°35' W 133°39'1 1.2 -0.0 27.6
2018-Jun-12 16:30N 11°35' W 133°38'1 0.8 -0.0 27.6
2018-Jun-12 15:30N 11°35' W 133°38'0 0.0 -0.0 27.6
2018-Jun-12 15:00N 11°35' W 133°38'1 1.2 -0.0 27.6
2018-Jun-12 14:30N 11°35' W 133°37'1 1.7 -0.0 27.6
2018-Jun-12 14:00N 11°34' W 133°37'0 0.0 -0.0 27.6
2018-Jun-12 13:30N 11°34' W 133°37'1 0.6 -0.0 27.6
2018-Jun-12 12:30N 11°34' W 133°36'1 1.2 -0.0 27.6
2018-Jun-12 11:30N 11°34' W 133°35'2 0.6 -0.0 27.6
2018-Jun-12 07:30N 11°34' W 133°32'2 1.0 -0.0 27.7
2018-Jun-12 05:00N 11°33' W 133°30'1 0.6 -0.0 27.8
2018-Jun-12 04:00N 11°33' W 133°29'1 1.2 -0.0 27.8
2018-Jun-12 03:30N 11°33' W 133°29'1 1.2 -0.0 27.8
2018-Jun-12 03:00N 11°33' W 133°28'1 1.2 -0.0 27.8
2018-Jun-12 02:30N 11°33' W 133°28'1 1.2 -0.0 27.9
2018-Jun-12 01:30N 11°33' W 133°26'0 0.0 -0.0 27.9
2018-Jun-12 01:00N 11°33' W 133°26'1 1.2 -0.0 27.9
2018-Jun-12 00:30N 11°33' W 133°26'1 1.2 -0.0 27.9
2018-Jun-12 00:00N 11°33' W 133°25'1 0.6 -0.0 27.9
2018-Jun-11 23:00N 11°33' W 133°25'1 0.6 -0.0 27.9
2018-Jun-11 22:00N 11°33' W 133°24'3 0.9 -0.0 27.9
2018-Jun-11 18:30N 11°32' W 133°21'0 0.0 -0.0 27.7
2018-Jun-11 18:00N 11°32' W 133°21'1 1.2 -0.0 27.7
2018-Jun-11 17:00N 11°32' W 133°20'   -0.0 27.6
Track history (hours):
 
Tides and Currents Weather Stations Pressure Air Temp Water Temp Dewpoint Dewpoint Depression Visibility Wind Speed Wind Dir Waves Ship Positions

Min Pu Yu 51819

Last reported at 2018-Jun-21 17:00 UTC. Time now 2018-Jun-21 18:03 UTC.
Position N 11°31' W 135°53'.

Length 26 m.

Type: Fishing. MMSI: 412448202.

Air temperature -0.0 ° C
Water temperature 27.6 ° C

Date/timePositionNaut miles runAvg speedWind from/ knotsBaromVisibWave heightAir tempDewpointWater temp
2018-Jun-21 17:00N 11°31' W 135°53'1 0.8 -0.0 27.6
2018-Jun-21 16:00N 11°31' W 135°52'0 0.0 -0.0 27.6
2018-Jun-21 15:30N 11°31' W 135°52'1 1.2 -0.0 27.5
2018-Jun-21 15:00N 11°31' W 135°52'1 1.2 -0.0 27.6
2018-Jun-21 14:30N 11°31' W 135°52'0 0.0 -0.0 27.6
2018-Jun-21 14:00N 11°31' W 135°52'1 1.2 -0.0 27.6
2018-Jun-21 13:30N 11°31' W 135°51'0 0.0 -0.0 27.6
2018-Jun-21 13:00N 11°31' W 135°51'0 0.0 -0.0 27.6
2018-Jun-21 12:30N 11°31' W 135°51'1 1.2 -0.0 27.5
2018-Jun-21 12:00N 11°31' W 135°50'0 0.0 -0.0 27.6
2018-Jun-21 11:30N 11°31' W 135°50'2 0.5 -0.0 27.6
2018-Jun-21 07:30N 11°30' W 135°49'1 0.8 -0.0 27.6
2018-Jun-21 06:30N 11°29' W 135°48'1 1.2 -0.0 27.6
2018-Jun-21 06:00N 11°29' W 135°47'1 1.2 -0.0 27.5
2018-Jun-21 05:00N 11°29' W 135°46'1 1.2 -0.0 27.6
2018-Jun-21 04:30N 11°29' W 135°46'0 0.0 -0.0 27.6
2018-Jun-21 04:00N 11°29' W 135°46'1 1.2 -0.0 27.6
2018-Jun-21 03:30N 11°29' W 135°45'1 1.2 -0.0 27.6
2018-Jun-21 03:00N 11°29' W 135°44'1 1.2 -0.0 27.6
2018-Jun-21 02:30N 11°29' W 135°44'1 1.2 -0.0 27.6
2018-Jun-21 02:00N 11°29' W 135°43'1 1.2 -0.0 27.6
2018-Jun-21 01:30N 11°29' W 135°43'0 0.0 -0.0 27.6
2018-Jun-21 01:00N 11°29' W 135°43'1 1.2 -0.0 27.6
2018-Jun-21 00:30N 11°29' W 135°42'1 0.8 -0.0 27.6
2018-Jun-20 23:00N 11°29' W 135°41'1 1.2 -0.0 27.6
2018-Jun-20 22:00N 11°29' W 135°40'4 1.2 -0.0 27.6
2018-Jun-20 19:00N 11°31' W 135°36'0 0.0 -0.0 27.6
2018-Jun-20 18:30N 11°31' W 135°36'1 1.2 -0.0 27.6
2018-Jun-20 18:00N 11°31' W 135°35'1 0.8 -0.0 27.6
2018-Jun-20 17:00N 11°31' W 135°35'1 1.3 -0.0 27.6
2018-Jun-20 16:00N 11°32' W 135°34'0 0.0 -0.0 27.6
2018-Jun-20 15:30N 11°32' W 135°34'1 1.2 -0.0 27.6
2018-Jun-20 15:00N 11°32' W 135°33'1 1.7 -0.0 27.6
2018-Jun-20 14:30N 11°32' W 135°32'1 0.6 -0.0 27.6
2018-Jun-20 13:30N 11°32' W 135°32'1 0.9 -0.0 27.7
2018-Jun-20 12:00N 11°33' W 135°31'1 1.3 -0.0 27.7
2018-Jun-20 11:00N 11°34' W 135°29'3 0.7 -0.0 27.7
2018-Jun-20 07:00N 11°35' W 135°27'0 0.0 -0.0 27.8
2018-Jun-20 06:30N 11°35' W 135°27'1 1.7 -0.0 27.9
2018-Jun-20 06:00N 11°35' W 135°26'0 0.0 -0.0 27.9
2018-Jun-20 05:30N 11°35' W 135°26'1 1.2 -0.0 27.9
2018-Jun-20 05:00N 11°35' W 135°26'1 1.2 -0.0 27.9
2018-Jun-20 04:30N 11°36' W 135°26'0 0.0 -0.0 27.9
2018-Jun-20 04:00N 11°36' W 135°26'1 1.2 -0.0 27.9
2018-Jun-20 03:30N 11°36' W 135°25'1 0.6 -0.0 27.9
2018-Jun-20 02:30N 11°36' W 135°25'1 0.8 -0.0 28.0
2018-Jun-20 01:30N 11°37' W 135°24'0 0.0 -0.0 28.0
2018-Jun-20 01:00N 11°37' W 135°24'1 0.6 -0.0 28.0
2018-Jun-20 00:00N 11°37' W 135°23'2 0.4 -0.0 28.0
2018-Jun-19 19:00N 11°37' W 135°22'1 0.6 -0.0 27.9
2018-Jun-19 18:00N 11°37' W 135°21'1 1.2 -0.0 27.8
2018-Jun-19 17:30N 11°37' W 135°21'0 0.0 -0.0 27.7
2018-Jun-19 17:00N 11°37' W 135°21'1 0.8 -0.0 27.6
2018-Jun-19 16:00N 11°38' W 135°20'0 0.0 -0.0 27.6
2018-Jun-19 15:30N 11°38' W 135°20'0 0.0 -0.0 27.7
2018-Jun-19 15:00N 11°38' W 135°20'1 0.8 -0.0 27.6
2018-Jun-19 14:00N 11°38' W 135°20'0 0.0 -0.0 27.7
2018-Jun-19 13:30N 11°38' W 135°20'1 0.6 -0.0 27.7
2018-Jun-19 12:30N 11°39' W 135°20'0 0.0 -0.0 27.7
2018-Jun-19 11:00N 11°39' W 135°20'2 0.5 -0.0 27.7
2018-Jun-19 07:30N 11°38' W 135°19'1 0.6 -0.0 27.8
2018-Jun-19 06:30N 11°38' W 135°18'0 0.0 -0.0 27.8
2018-Jun-19 06:00N 11°38' W 135°18'1 1.2 -0.0 27.8
2018-Jun-19 05:30N 11°38' W 135°17'1 1.2 -0.0 27.8
2018-Jun-19 05:00N 11°38' W 135°17'0 0.0 -0.0 27.8
2018-Jun-19 04:30N 11°38' W 135°17'1 1.2 -0.0 27.9
2018-Jun-19 04:00N 11°38' W 135°16'0 0.0 -0.0 27.9
2018-Jun-19 03:30N 11°38' W 135°16'1 1.2 -0.0 27.9
2018-Jun-19 03:00N 11°38' W 135°16'0 0.0 -0.0 27.9
2018-Jun-19 02:30N 11°38' W 135°16'1 1.2 -0.0 27.9
2018-Jun-19 02:00N 11°38' W 135°15'1 0.6 -0.0 27.9
2018-Jun-19 01:00N 11°38' W 135°14'1 0.8 -0.0 28.0
2018-Jun-19 00:00N 11°37' W 135°14'1 1.2 -0.0 28.0
2018-Jun-18 23:30N 11°37' W 135°13'4 0.9 -0.0 28.0
2018-Jun-18 19:30N 11°35' W 135°10'1 1.2 -0.0 27.8
2018-Jun-18 19:00N 11°35' W 135°10'0 0.0 -0.0 27.7
2018-Jun-18 18:30N 11°35' W 135°10'1 1.7 -0.0 27.7
2018-Jun-18 18:00N 11°34' W 135°09'1 0.6 -0.0 27.7
2018-Jun-18 17:00N 11°34' W 135°08'0 0.0 -0.0 27.7
2018-Jun-18 16:30N 11°34' W 135°08'1 1.2 -0.0 27.7
2018-Jun-18 16:00N 11°34' W 135°08'0 0.0 -0.0 27.7
2018-Jun-18 15:30N 11°34' W 135°08'1 1.2 -0.0 27.6
2018-Jun-18 15:00N 11°34' W 135°07'1 0.8 -0.0 27.7
2018-Jun-18 14:00N 11°34' W 135°07'1 1.2 -0.0 27.7
2018-Jun-18 13:30N 11°34' W 135°06'1 1.2 -0.0 27.7
2018-Jun-18 13:00N 11°34' W 135°05'4 0.7 -0.0 27.7
2018-Jun-18 07:00N 11°32' W 135°01'1 1.2 -0.0 27.7
2018-Jun-18 06:30N 11°32' W 135°01'1 1.2 -0.0 27.7
2018-Jun-18 06:00N 11°32' W 135°00'0 0.0 -0.0 27.8
2018-Jun-18 05:30N 11°32' W 135°00'1 1.2 -0.0 27.8
2018-Jun-18 05:00N 11°32' W 134°59'1 1.2 -0.0 27.8
2018-Jun-18 04:30N 11°33' W 134°59'1 1.2 -0.0 27.8
2018-Jun-18 04:00N 11°33' W 134°59'1 1.2 -0.0 27.8
2018-Jun-18 03:30N 11°33' W 134°58'1 1.2 -0.0 27.8
2018-Jun-18 03:00N 11°34' W 134°58'1 1.2 -0.0 27.9
2018-Jun-18 02:30N 11°34' W 134°58'1 1.7 -0.0 27.9
2018-Jun-18 02:00N 11°34' W 134°57'0 0.0 -0.0 28.0
2018-Jun-18 01:30N 11°34' W 134°57'1 1.2 -0.0 28.0
2018-Jun-18 01:00N 11°34' W 134°56'1 0.6 -0.0 28.1
2018-Jun-18 00:00N 11°34' W 134°56'1 1.2 -0.0 28.1
2018-Jun-17 23:30N 11°35' W 134°56'2 0.5 -0.0 28.1
2018-Jun-17 19:00N 11°34' W 134°53'1 0.6 -0.0 27.8
2018-Jun-17 18:00N 11°34' W 134°53'1 0.6 -0.0 27.7
2018-Jun-17 17:00N 11°34' W 134°52'0 0.0 -0.0 27.6
2018-Jun-17 16:30N 11°34' W 134°52'0 0.0 -0.0 27.6
2018-Jun-17 16:00N 11°34' W 134°52'1 0.8 -0.0 27.6
2018-Jun-17 15:00N 11°35' W 134°52'0 0.0 -0.0 27.6
2018-Jun-17 14:30N 11°35' W 134°52'1 1.2 -0.0 27.6
2018-Jun-17 14:00N 11°35' W 134°51'0 0.0 -0.0 27.6
2018-Jun-17 13:30N 11°35' W 134°51'1 1.2 -0.0 27.6
2018-Jun-17 13:00N 11°35' W 134°51'1 1.2 -0.0 27.6
2018-Jun-17 12:30N 11°35' W 134°50'1 0.6 -0.0 27.6
2018-Jun-17 11:30N 11°36' W 134°50'2 0.5 -0.0 27.6
2018-Jun-17 07:00N 11°35' W 134°48'0 0.0 -0.0 27.7
2018-Jun-17 06:30N 11°35' W 134°48'1 0.8 -0.0 27.7
2018-Jun-17 05:30N 11°36' W 134°47'0 0.0 -0.0 27.7
2018-Jun-17 05:00N 11°36' W 134°47'1 1.2 -0.0 27.7
2018-Jun-17 04:30N 11°36' W 134°47'0 0.0 -0.0 27.7
2018-Jun-17 03:30N 11°36' W 134°47'0 0.0 -0.0 27.8
2018-Jun-17 03:00N 11°36' W 134°47'1 0.6 -0.0 27.8
2018-Jun-17 01:30N 11°35' W 134°46'1 0.6 -0.0 27.9
2018-Jun-17 00:30N 11°35' W 134°46'0 0.0 -0.0 28.0
2018-Jun-17 00:00N 11°35' W 134°46'1 0.6 -0.0 28.0
2018-Jun-16 23:00N 11°35' W 134°45'1 0.4 -0.0 28.0
2018-Jun-16 19:30N 11°35' W 134°44'1 0.8 -0.0 27.7
2018-Jun-16 18:30N 11°34' W 134°43'0 0.0 -0.0 27.6
2018-Jun-16 18:00N 11°34' W 134°43'1 1.2 -0.0 27.6
2018-Jun-16 17:30N 11°34' W 134°43'0 0.0 -0.0 27.6
2018-Jun-16 17:00N 11°34' W 134°43'1 0.8 -0.0 27.6
2018-Jun-16 16:00N 11°34' W 134°42'1 0.6 -0.0 27.6
2018-Jun-16 15:00N 11°34' W 134°41'0 0.0 -0.0 27.6
2018-Jun-16 14:30N 11°34' W 134°41'1 1.2 -0.0 27.6
2018-Jun-16 14:00N 11°34' W 134°41'1 0.8 -0.0 27.6
2018-Jun-16 13:00N 11°34' W 134°40'0 0.0 -0.0 27.6
2018-Jun-16 12:30N 11°34' W 134°40'3 0.5 -0.0 27.6
2018-Jun-16 07:30N 11°33' W 134°38'1 1.2 -0.0 27.6
2018-Jun-16 07:00N 11°33' W 134°37'1 1.3 -0.0 27.7
2018-Jun-16 06:00N 11°32' W 134°36'0 0.0 -0.0 27.7
2018-Jun-16 05:30N 11°32' W 134°36'1 1.2 -0.0 27.7
2018-Jun-16 05:00N 11°32' W 134°35'1 1.2 -0.0 27.7
2018-Jun-16 04:30N 11°32' W 134°35'0 0.0 -0.0 27.7
2018-Jun-16 04:00N 11°32' W 134°35'1 1.3 -0.0 27.7
2018-Jun-16 03:00N 11°33' W 134°34'1 0.6 -0.0 27.7
2018-Jun-16 02:00N 11°33' W 134°33'1 1.2 -0.0 27.8
2018-Jun-16 01:30N 11°33' W 134°32'0 0.0 -0.0 27.8
2018-Jun-16 01:00N 11°33' W 134°32'1 0.8 -0.0 27.8
2018-Jun-16 00:00N 11°34' W 134°32'1 0.6 -0.0 27.8
2018-Jun-15 23:00N 11°34' W 134°31'2 0.7 -0.0 27.8
2018-Jun-15 19:30N 11°34' W 134°29'1 1.2 -0.0 27.6
2018-Jun-15 19:00N 11°34' W 134°28'1 1.3 -0.0 27.6
2018-Jun-15 18:00N 11°33' W 134°27'1 0.6 -0.0 27.6
2018-Jun-15 17:00N 11°33' W 134°26'1 0.8 -0.0 27.6
2018-Jun-15 16:00N 11°34' W 134°26'1 1.2 -0.0 27.6
2018-Jun-15 15:30N 11°34' W 134°25'1 0.8 -0.0 27.6
2018-Jun-15 14:30N 11°34' W 134°25'0 0.0 -0.0 27.6
2018-Jun-15 14:00N 11°34' W 134°25'1 1.2 -0.0 27.6
2018-Jun-15 13:30N 11°34' W 134°24'0 0.0 -0.0 27.6
2018-Jun-15 13:00N 11°34' W 134°24'1 0.8 -0.0 27.6
2018-Jun-15 12:00N 11°35' W 134°23'3 0.5 -0.0 27.6
2018-Jun-15 06:30N 11°35' W 134°20'0 0.0 -0.0 27.6
2018-Jun-15 06:00N 11°35' W 134°20'1 1.2 -0.0 27.6
2018-Jun-15 05:30N 11°35' W 134°20'1 1.7 -0.0 27.7
2018-Jun-15 05:00N 11°36' W 134°19'0 0.0 -0.0 27.7
2018-Jun-15 04:30N 11°36' W 134°19'1 1.2 -0.0 27.7
2018-Jun-15 04:00N 11°36' W 134°19'0 0.0 -0.0 27.7
2018-Jun-15 03:30N 11°36' W 134°19'1 0.6 -0.0 27.7
2018-Jun-15 02:30N 11°36' W 134°18'1 1.2 -0.0 27.7
2018-Jun-15 02:00N 11°37' W 134°18'1 0.6 -0.0 27.7
2018-Jun-15 01:00N 11°37' W 134°17'4 0.7 -0.0 27.7
2018-Jun-14 19:00N 11°37' W 134°13'1 0.4 -0.0 27.6
2018-Jun-14 17:30N 11°37' W 134°13'0 0.0 -0.0 27.6
2018-Jun-14 16:30N 11°37' W 134°13'1 1.7 -0.0 27.6
2018-Jun-14 16:00N 11°37' W 134°12'1 1.2 -0.0 27.6
2018-Jun-14 15:30N 11°37' W 134°12'1 1.2 -0.0 27.6
2018-Jun-14 15:00N 11°37' W 134°12'1 1.7 -0.0 27.6
2018-Jun-14 14:30N 11°37' W 134°11'0 0.0 -0.0 27.6
2018-Jun-14 14:00N 11°37' W 134°11'0 0.0 -0.0 27.6
2018-Jun-14 13:30N 11°37' W 134°11'0 0.0 -0.0 27.6
2018-Jun-14 13:00N 11°37' W 134°11'1 0.6 -0.0 27.6
2018-Jun-14 12:00N 11°37' W 134°11'1 1.2 -0.0 27.6
2018-Jun-14 11:30N 11°37' W 134°10'3 0.5 -0.0 27.6
2018-Jun-14 06:30N 11°36' W 134°08'1 1.2 -0.0 27.6
2018-Jun-14 06:00N 11°36' W 134°07'1 0.8 -0.0 27.6
2018-Jun-14 05:00N 11°35' W 134°07'0 0.0 -0.0 27.6
2018-Jun-14 04:30N 11°35' W 134°07'1 1.2 -0.0 27.6
2018-Jun-14 04:00N 11°35' W 134°06'1 0.8 -0.0 27.7
2018-Jun-14 03:00N 11°35' W 134°05'1 0.8 -0.0 27.7
2018-Jun-14 02:00N 11°34' W 134°05'1 1.2 -0.0 27.7
2018-Jun-14 01:30N 11°34' W 134°04'1 1.2 -0.0 27.7
2018-Jun-14 01:00N 11°34' W 134°04'0 0.0 -0.0 27.8
2018-Jun-14 00:30N 11°34' W 134°04'2 1.2 -0.0 27.8
2018-Jun-13 23:00N 11°34' W 134°02'3 0.8 -0.0 27.8
2018-Jun-13 19:30N 11°34' W 133°59'1 0.4 -0.0 27.7
2018-Jun-13 18:00N 11°34' W 133°58'1 0.6 -0.0 27.7
2018-Jun-13 17:00N 11°34' W 133°58'1 1.2 -0.0 27.7
2018-Jun-13 16:30N 11°34' W 133°57'0 0.0 -0.0 27.7
2018-Jun-13 16:00N 11°34' W 133°57'1 0.6 -0.0 27.7
2018-Jun-13 15:00N 11°34' W 133°56'1 1.2 -0.0 27.7
2018-Jun-13 14:30N 11°34' W 133°56'1 0.6 -0.0 27.8
2018-Jun-13 13:30N 11°34' W 133°55'1 1.2 -0.0 27.8
2018-Jun-13 13:00N 11°34' W 133°55'1 1.2 -0.0 27.8
2018-Jun-13 12:00N 11°34' W 133°53'0 0.0 -0.0 27.8
2018-Jun-13 11:30N 11°34' W 133°53'1 1.3 -0.0 27.8
2018-Jun-13 10:30N 11°35' W 133°52'4 1.0 -0.0 27.8
2018-Jun-13 07:00N 11°35' W 133°49'1 1.2 -0.0 27.8
2018-Jun-13 06:30N 11°35' W 133°48'0 0.0 -0.0 27.8
2018-Jun-13 06:00N 11°35' W 133°48'1 1.2 -0.0 27.8
2018-Jun-13 05:30N 11°35' W 133°47'0 0.0 -0.0 27.8
2018-Jun-13 05:00N 11°35' W 133°47'1 1.2 -0.0 27.8
2018-Jun-13 04:30N 11°35' W 133°47'1 0.6 -0.0 27.8
2018-Jun-13 03:30N 11°35' W 133°46'1 1.2 -0.0 27.8
2018-Jun-13 03:00N 11°35' W 133°46'1 1.2 -0.0 27.9
2018-Jun-13 02:30N 11°35' W 133°45'1 1.2 -0.0 27.9
2018-Jun-13 02:00N 11°34' W 133°45'1 1.2 -0.0 27.9
2018-Jun-13 01:00N 11°34' W 133°44'1 1.2 -0.0 28.0
2018-Jun-13 00:30N 11°34' W 133°43'2 0.7 -0.0 28.1
2018-Jun-12 22:00N 11°35' W 133°41'1 0.7 -0.0 28.0
2018-Jun-12 20:00N 11°35' W 133°40'1 0.6 -0.0 27.8
2018-Jun-12 19:00N 11°35' W 133°40'0 0.0 -0.0 27.7
2018-Jun-12 18:00N 11°35' W 133°40'1 1.2 -0.0 27.7
2018-Jun-12 17:30N 11°35' W 133°39'0 0.0 -0.0 27.7
2018-Jun-12 17:00N 11°35' W 133°39'1 1.2 -0.0 27.6
2018-Jun-12 16:30N 11°35' W 133°38'1 0.8 -0.0 27.6
2018-Jun-12 15:30N 11°35' W 133°38'0 0.0 -0.0 27.6
2018-Jun-12 15:00N 11°35' W 133°38'1 1.2 -0.0 27.6
2018-Jun-12 14:30N 11°35' W 133°37'1 1.7 -0.0 27.6
2018-Jun-12 14:00N 11°34' W 133°37'0 0.0 -0.0 27.6
2018-Jun-12 13:30N 11°34' W 133°37'1 0.6 -0.0 27.6
2018-Jun-12 12:30N 11°34' W 133°36'1 1.2 -0.0 27.6
2018-Jun-12 11:30N 11°34' W 133°35'2 0.6 -0.0 27.6
2018-Jun-12 07:30N 11°34' W 133°32'2 1.0 -0.0 27.7
2018-Jun-12 05:00N 11°33' W 133°30'1 0.6 -0.0 27.8
2018-Jun-12 04:00N 11°33' W 133°29'1 1.2 -0.0 27.8
2018-Jun-12 03:30N 11°33' W 133°29'1 1.2 -0.0 27.8
2018-Jun-12 03:00N 11°33' W 133°28'1 1.2 -0.0 27.8
2018-Jun-12 02:30N 11°33' W 133°28'1 1.2 -0.0 27.9
2018-Jun-12 01:30N 11°33' W 133°26'0 0.0 -0.0 27.9
2018-Jun-12 01:00N 11°33' W 133°26'1 1.2 -0.0 27.9
2018-Jun-12 00:30N 11°33' W 133°26'1 1.2 -0.0 27.9
2018-Jun-12 00:00N 11°33' W 133°25'1 0.6 -0.0 27.9
2018-Jun-11 23:00N 11°33' W 133°25'1 0.6 -0.0 27.9
2018-Jun-11 22:00N 11°33' W 133°24'3 0.9 -0.0 27.9
2018-Jun-11 18:30N 11°32' W 133°21'0 0.0 -0.0 27.7
2018-Jun-11 18:00N 11°32' W 133°21'1 1.2 -0.0 27.7
2018-Jun-11 17:00N 11°32' W 133°20'   -0.0 27.6

Dump ship's entire track history